Terminal Aerodrome Forecast
Issued by NWS Tampa Bay Area, FL

Home | Current Version | Previous Version | Text Only | Print | Product List | Glossary On
Versions: 1 2 3 4 5 6 7 8 9 10 11 12 13 14 15 16 17
945
FTUS42 KTBW 250533
TAFFMY
TAF
KFMY 250533Z 2506/2606 32006KT P6SM SCT030 SCT250
     FM251500 30010KT P6SM SCT030 SCT250
     FM251800 28013KT P6SM FEW040
     FM260100 32007KT P6SM SKC=

USA.gov is the U.S. government's official web portal to all federal, state and local government web resources and services.